sensor_id;sensor_type;location;lat;lon;timestamp;pressure;altitude;pressure_sealevel;temperature;humidity
64889;BME280;51386;53.082;8.816;2023-12-20T00:00:12;101039.34;;;9.86;69.86
64889;BME280;51386;53.082;8.816;2023-12-20T00:02:41;101046.56;;;9.84;69.97
64889;BME280;51386;53.082;8.816;2023-12-20T00:05:14;101039.97;;;9.80;70.13
64889;BME280;51386;53.082;8.816;2023-12-20T00:07:43;101038.66;;;9.76;70.01
64889;BME280;51386;53.082;8.816;2023-12-20T00:10:12;101036.34;;;9.73;70.16
64889;BME280;51386;53.082;8.816;2023-12-20T00:12:41;101032.22;;;9.70;70.10
64889;BME280;51386;53.082;8.816;2023-12-20T00:15:09;101028.94;;;9.68;70.08
64889;BME280;51386;53.082;8.816;2023-12-20T00:17:38;101032.72;;;9.66;70.21
64889;BME280;51386;53.082;8.816;2023-12-20T00:20:07;101038.31;;;9.63;70.20
64889;BME280;51386;53.082;8.816;2023-12-20T00:22:36;101025.50;;;9.60;70.15
64889;BME280;51386;53.082;8.816;2023-12-20T00:25:04;101036.97;;;9.59;70.19
64889;BME280;51386;53.082;8.816;2023-12-20T00:27:33;101018.88;;;9.55;70.37
64889;BME280;51386;53.082;8.816;2023-12-20T00:30:02;101030.72;;;9.51;70.18
64889;BME280;51386;53.082;8.816;2023-12-20T00:32:30;101025.75;;;9.48;70.08
64889;BME280;51386;53.082;8.816;2023-12-20T00:34:59;101028.75;;;9.45;70.54
64889;BME280;51386;53.082;8.816;2023-12-20T00:37:27;101030.72;;;9.43;70.55
64889;BME280;51386;53.082;8.816;2023-12-20T00:39:55;101034.47;;;9.41;70.58
64889;BME280;51386;53.082;8.816;2023-12-20T00:42:24;101026.72;;;9.39;70.57
64889;BME280;51386;53.082;8.816;2023-12-20T00:44:52;101020.81;;;9.37;70.33
64889;BME280;51386;53.082;8.816;2023-12-20T00:47:20;101014.91;;;9.35;70.72
64889;BME280;51386;53.082;8.816;2023-12-20T00:49:50;101005.22;;;9.36;70.49
64889;BME280;51386;53.082;8.816;2023-12-20T00:52:18;101005.22;;;9.36;70.54
64889;BME280;51386;53.082;8.816;2023-12-20T00:54:47;101006.38;;;9.33;70.56
64889;BME280;51386;53.082;8.816;2023-12-20T00:57:15;101013.59;;;9.31;70.44
64889;BME280;51386;53.082;8.816;2023-12-20T00:59:44;101020.81;;;9.29;70.41
64889;BME280;51386;53.082;8.816;2023-12-20T01:02:12;101002.56;;;9.28;70.40
64889;BME280;51386;53.082;8.816;2023-12-20T01:04:40;101003.72;;;9.25;70.41
64889;BME280;51386;53.082;8.816;2023-12-20T01:07:09;101000.44;;;9.23;70.64
64889;BME280;51386;53.082;8.816;2023-12-20T01:09:37;100990.22;;;9.20;70.69
64889;BME280;51386;53.082;8.816;2023-12-20T01:12:06;100991.38;;;9.18;70.90
64889;BME280;51386;53.082;8.816;2023-12-20T01:14:34;100989.88;;;9.15;70.53
64889;BME280;51386;53.082;8.816;2023-12-20T01:17:03;100999.72;;;9.13;70.63
64889;BME280;51386;53.082;8.816;2023-12-20T01:19:31;101006.94;;;9.11;70.87
64889;BME280;51386;53.082;8.816;2023-12-20T01:22:00;101010.56;;;9.10;71.14
64889;BME280;51386;53.082;8.816;2023-12-20T01:24:28;101014.16;;;9.09;70.84
64889;BME280;51386;53.082;8.816;2023-12-20T01:26:56;101006.13;;;9.11;71.20
64889;BME280;51386;53.082;8.816;2023-12-20T01:29:25;100987.59;;;9.12;71.20
64889;BME280;51386;53.082;8.816;2023-12-20T01:31:53;100985.94;;;9.11;71.00
64889;BME280;51386;53.082;8.816;2023-12-20T01:34:22;100984.31;;;9.10;70.99
64889;BME280;51386;53.082;8.816;2023-12-20T01:36:50;100981.00;;;9.08;71.07
64889;BME280;51386;53.082;8.816;2023-12-20T01:39:19;100987.25;;;9.07;71.09
64889;BME280;51386;53.082;8.816;2023-12-20T01:41:55;100995.44;;;9.04;70.98
64889;BME280;51386;53.082;8.816;2023-12-20T01:44:24;100991.84;;;9.05;71.18
64889;BME280;51386;53.082;8.816;2023-12-20T01:46:52;100979.38;;;9.07;71.03
64889;BME280;51386;53.082;8.816;2023-12-20T01:49:21;100971.19;;;9.10;71.22
64889;BME280;51386;53.082;8.816;2023-12-20T01:51:50;100965.75;;;9.12;71.29
64889;BME280;51386;53.082;8.816;2023-12-20T01:54:20;100965.75;;;9.12;71.05
64889;BME280;51386;53.082;8.816;2023-12-20T01:56:50;100952.94;;;9.09;71.07
64889;BME280;51386;53.082;8.816;2023-12-20T01:59:20;100960.00;;;9.08;71.23
64889;BME280;51386;53.082;8.816;2023-12-20T02:01:49;100967.06;;;9.08;71.07
64889;BME280;51386;53.082;8.816;2023-12-20T02:04:18;100962.97;;;9.05;71.22
64889;BME280;51386;53.082;8.816;2023-12-20T02:06:47;100970.19;;;9.03;71.05
64889;BME280;51386;53.082;8.816;2023-12-20T02:09:16;100960.66;;;9.02;71.19
64889;BME280;51386;53.082;8.816;2023-12-20T02:11:44;100965.25;;;9.00;71.03
64889;BME280;51386;53.082;8.816;2023-12-20T02:14:13;100961.78;;;9.00;70.92
64889;BME280;51386;53.082;8.816;2023-12-20T02:16:41;100954.88;;;8.99;71.22
64889;BME280;51386;53.082;8.816;2023-12-20T02:19:14;100959.31;;;8.98;71.20
64889;BME280;51386;53.082;8.816;2023-12-20T02:21:43;100956.03;;;8.96;71.11
64889;BME280;51386;53.082;8.816;2023-12-20T02:24:11;100943.88;;;8.95;71.09
64889;BME280;51386;53.082;8.816;2023-12-20T02:26:40;100942.22;;;8.94;71.05
64889;BME280;51386;53.082;8.816;2023-12-20T02:29:13;100941.44;;;8.94;71.26
64889;BME280;51386;53.082;8.816;2023-12-20T02:31:41;100940.59;;;8.93;71.29
64889;BME280;51386;53.082;8.816;2023-12-20T02:34:09;100935.19;;;8.95;71.35
64889;BME280;51386;53.082;8.816;2023-12-20T02:36:38;100937.81;;;8.95;71.36
64889;BME280;51386;53.082;8.816;2023-12-20T02:39:06;100935.03;;;8.96;71.20
64889;BME280;51386;53.082;8.816;2023-12-20T02:41:35;100927.81;;;8.98;71.01
64889;BME280;51386;53.082;8.816;2023-12-20T02:44:04;100920.59;;;9.00;71.16
64889;BME280;51386;53.082;8.816;2023-12-20T02:46:32;100928.19;;;9.03;71.15
64889;BME280;51386;53.082;8.816;2023-12-20T02:49:00;100920.97;;;9.05;71.15
64889;BME280;51386;53.082;8.816;2023-12-20T02:51:29;100920.47;;;9.10;71.07
64889;BME280;51386;53.082;8.816;2023-12-20T02:53:57;100919.34;;;9.12;70.91
64889;BME280;51386;53.082;8.816;2023-12-20T02:56:26;100913.44;;;9.18;70.99
64889;BME280;51386;53.082;8.816;2023-12-20T02:58:54;100911.44;;;9.20;70.59
64889;BME280;51386;53.082;8.816;2023-12-20T03:01:22;100914.41;;;9.25;70.72
64889;BME280;51386;53.082;8.816;2023-12-20T03:03:51;100907.19;;;9.27;70.51
64889;BME280;51386;53.082;8.816;2023-12-20T03:06:19;100898.03;;;9.31;70.59
64889;BME280;51386;53.082;8.816;2023-12-20T03:08:48;100899.34;;;9.35;70.31
64889;BME280;51386;53.082;8.816;2023-12-20T03:11:17;100897.38;;;9.37;70.37
64889;BME280;51386;53.082;8.816;2023-12-20T03:13:45;100894.44;;;9.40;70.55
64889;BME280;51386;53.082;8.816;2023-12-20T03:16:14;100889.81;;;9.42;70.17
64889;BME280;51386;53.082;8.816;2023-12-20T03:18:44;100899.19;;;9.45;69.97
64889;BME280;51386;53.082;8.816;2023-12-20T03:21:12;100896.38;;;9.46;70.15
64889;BME280;51386;53.082;8.816;2023-12-20T03:23:41;100908.56;;;9.47;70.07
64889;BME280;51386;53.082;8.816;2023-12-20T03:26:10;100898.88;;;9.48;69.88
64889;BME280;51386;53.082;8.816;2023-12-20T03:28:38;100892.78;;;9.47;69.67
64889;BME280;51386;53.082;8.816;2023-12-20T03:31:07;100897.88;;;9.49;69.73
64889;BME280;51386;53.082;8.816;2023-12-20T03:33:35;100892.47;;;9.50;69.58
64889;BME280;51386;53.082;8.816;2023-12-20T03:36:04;100893.44;;;9.49;69.71
64889;BME280;51386;53.082;8.816;2023-12-20T03:38:33;100888.84;;;9.51;69.30
64889;BME280;51386;53.082;8.816;2023-12-20T03:41:01;100886.06;;;9.53;69.63
64889;BME280;51386;53.082;8.816;2023-12-20T03:43:29;100885.91;;;9.54;69.35
64889;BME280;51386;53.082;8.816;2023-12-20T03:45:58;100885.72;;;9.56;69.51
64889;BME280;51386;53.082;8.816;2023-12-20T03:48:28;100872.44;;;9.58;69.28
64889;BME280;51386;53.082;8.816;2023-12-20T03:50:57;100880.97;;;9.60;69.55
64889;BME280;51386;53.082;8.816;2023-12-20T03:53:25;100873.75;;;9.62;69.43
64889;BME280;51386;53.082;8.816;2023-12-20T03:55:53;100875.53;;;9.61;69.12
64889;BME280;51386;53.082;8.816;2023-12-20T03:58:22;100870.13;;;9.63;69.42
64889;BME280;51386;53.082;8.816;2023-12-20T04:00:50;100863.88;;;9.64;69.18
64889;BME280;51386;53.082;8.816;2023-12-20T04:03:19;100863.88;;;9.64;69.15
64889;BME280;51386;53.082;8.816;2023-12-20T04:05:47;100854.03;;;9.66;69.20
64889;BME280;51386;53.082;8.816;2023-12-20T04:08:16;100859.28;;;9.66;69.26
64889;BME280;51386;53.082;8.816;2023-12-20T04:10:44;100856.00;;;9.64;69.04
64889;BME280;51386;53.082;8.816;2023-12-20T04:13:12;100854.38;;;9.63;69.20
64889;BME280;51386;53.082;8.816;2023-12-20T04:15:41;100855.16;;;9.63;68.85
64889;BME280;51386;53.082;8.816;2023-12-20T04:18:09;100848.13;;;9.64;68.86
64889;BME280;51386;53.082;8.816;2023-12-20T04:20:38;100844.50;;;9.65;68.97
64889;BME280;51386;53.082;8.816;2023-12-20T04:23:06;100846.97;;;9.66;68.90
64889;BME280;51386;53.082;8.816;2023-12-20T04:25:35;100845.16;;;9.67;68.61
64889;BME280;51386;53.082;8.816;2023-12-20T04:28:03;100838.91;;;9.68;68.67
64889;BME280;51386;53.082;8.816;2023-12-20T04:30:33;100837.75;;;9.70;68.73
64889;BME280;51386;53.082;8.816;2023-12-20T04:33:01;100845.50;;;9.72;68.71
64889;BME280;51386;53.082;8.816;2023-12-20T04:35:30;100837.59;;;9.72;68.45
64889;BME280;51386;53.082;8.816;2023-12-20T04:37:58;100835.63;;;9.74;68.53
64889;BME280;51386;53.082;8.816;2023-12-20T04:40:27;100844.16;;;9.76;68.50
64889;BME280;51386;53.082;8.816;2023-12-20T04:42:55;100838.25;;;9.74;68.08
64889;BME280;51386;53.082;8.816;2023-12-20T04:45:24;100837.59;;;9.72;68.15
64889;BME280;51386;53.082;8.816;2023-12-20T04:47:52;100835.47;;;9.67;68.39
64889;BME280;51386;53.082;8.816;2023-12-20T04:50:21;100834.97;;;9.64;68.38
64889;BME280;51386;53.082;8.816;2023-12-20T04:52:50;100843.84;;;9.63;68.40
64889;BME280;51386;53.082;8.816;2023-12-20T04:55:19;100839.56;;;9.62;68.32
64889;BME280;51386;53.082;8.816;2023-12-20T04:57:48;100826.44;;;9.62;68.35
64889;BME280;51386;53.082;8.816;2023-12-20T05:00:16;100835.81;;;9.64;68.61
64889;BME280;51386;53.082;8.816;2023-12-20T05:02:45;100826.75;;;9.67;68.50
64889;BME280;51386;53.082;8.816;2023-12-20T05:05:13;100819.72;;;9.67;68.30
64889;BME280;51386;53.082;8.816;2023-12-20T05:07:43;100811.00;;;9.67;68.44
64889;BME280;51386;53.082;8.816;2023-12-20T05:10:12;100808.38;;;9.67;68.54
64889;BME280;51386;53.082;8.816;2023-12-20T05:12:40;100802.09;;;9.68;68.31
64889;BME280;51386;53.082;8.816;2023-12-20T05:15:09;100802.94;;;9.68;68.87
64889;BME280;51386;53.082;8.816;2023-12-20T05:17:37;100816.25;;;9.67;68.44
64889;BME280;51386;53.082;8.816;2023-12-20T05:20:07;100813.31;;;9.70;68.51
64889;BME280;51386;53.082;8.816;2023-12-20T05:22:36;100813.78;;;9.73;68.75
64889;BME280;51386;53.082;8.816;2023-12-20T05:25:05;100814.28;;;9.77;68.67
64889;BME280;51386;53.082;8.816;2023-12-20T05:27:36;100815.91;;;9.78;68.18
64889;BME280;51386;53.082;8.816;2023-12-20T05:30:05;100812.63;;;9.76;68.37
64889;BME280;51386;53.082;8.816;2023-12-20T05:32:34;100820.69;;;9.74;68.29
64889;BME280;51386;53.082;8.816;2023-12-20T05:35:02;100810.00;;;9.76;68.45
64889;BME280;51386;53.082;8.816;2023-12-20T05:37:31;100809.34;;;9.74;68.44
64889;BME280;51386;53.082;8.816;2023-12-20T05:39:59;100805.25;;;9.71;68.50
64889;BME280;51386;53.082;8.816;2023-12-20T05:42:28;100802.09;;;9.68;68.49
64889;BME280;51386;53.082;8.816;2023-12-20T05:44:56;100808.69;;;9.64;68.57
64889;BME280;51386;53.082;8.816;2023-12-20T05:47:25;100816.75;;;9.62;68.53
64889;BME280;51386;53.082;8.816;2023-12-20T05:49:53;100823.50;;;9.65;68.50
64889;BME280;51386;53.082;8.816;2023-12-20T05:52:22;100816.91;;;9.69;68.69
64889;BME280;51386;53.082;8.816;2023-12-20T05:54:50;100821.84;;;9.72;68.61
64889;BME280;51386;53.082;8.816;2023-12-20T05:57:19;100803.44;;;9.72;68.13
64889;BME280;51386;53.082;8.816;2023-12-20T05:59:47;100798.00;;;9.73;68.30
64889;BME280;51386;53.082;8.816;2023-12-20T06:02:15;100800.44;;;9.75;68.23
64889;BME280;51386;53.082;8.816;2023-12-20T06:04:44;100799.16;;;9.79;68.07
64889;BME280;51386;53.082;8.816;2023-12-20T06:07:14;100786.00;;;9.79;68.23
64889;BME280;51386;53.082;8.816;2023-12-20T06:09:43;100790.91;;;9.82;68.04
64889;BME280;51386;53.082;8.816;2023-12-20T06:12:11;100779.75;;;9.80;68.16
64889;BME280;51386;53.082;8.816;2023-12-20T06:14:40;100785.66;;;9.82;68.09
64889;BME280;51386;53.082;8.816;2023-12-20T06:17:08;100784.50;;;9.84;68.35
64889;BME280;51386;53.082;8.816;2023-12-20T06:19:36;100788.97;;;9.84;68.08
64889;BME280;51386;53.082;8.816;2023-12-20T06:22:05;100790.25;;;9.88;67.83
64889;BME280;51386;53.082;8.816;2023-12-20T06:24:33;100795.19;;;9.91;68.07
64889;BME280;51386;53.082;8.816;2023-12-20T06:27:02;100794.81;;;9.94;67.99
64889;BME280;51386;53.082;8.816;2023-12-20T06:29:31;100783.97;;;9.97;68.10
64889;BME280;51386;53.082;8.816;2023-12-20T06:31:59;100774.09;;;9.99;67.96
64889;BME280;51386;53.082;8.816;2023-12-20T06:34:28;100771.97;;;10.02;67.94
64889;BME280;51386;53.082;8.816;2023-12-20T06:36:56;100770.81;;;10.05;67.98
64889;BME280;51386;53.082;8.816;2023-12-20T06:39:25;100768.84;;;10.07;67.92
64889;BME280;51386;53.082;8.816;2023-12-20T06:41:53;100756.31;;;10.09;67.75
64889;BME280;51386;53.082;8.816;2023-12-20T06:44:22;100742.19;;;10.10;67.50
64889;BME280;51386;53.082;8.816;2023-12-20T06:46:50;100737.63;;;10.12;67.70
64889;BME280;51386;53.082;8.816;2023-12-20T06:49:18;100743.69;;;10.12;67.33
64889;BME280;51386;53.082;8.816;2023-12-20T06:51:47;100742.69;;;10.13;67.71
64889;BME280;51386;53.082;8.816;2023-12-20T06:54:15;100745.97;;;10.15;67.36
64889;BME280;51386;53.082;8.816;2023-12-20T06:56:44;100746.59;;;10.17;67.18
64889;BME280;51386;53.082;8.816;2023-12-20T06:59:12;100744.47;;;10.21;67.22
64889;BME280;51386;53.082;8.816;2023-12-20T07:01:40;100748.38;;;10.25;67.08
64889;BME280;51386;53.082;8.816;2023-12-20T07:04:30;100744.47;;;10.21;67.26
64889;BME280;51386;53.082;8.816;2023-12-20T07:06:58;100740.88;;;10.22;67.18
64889;BME280;51386;53.082;8.816;2023-12-20T07:09:28;100742.47;;;10.23;67.20
64889;BME280;51386;53.082;8.816;2023-12-20T07:11:56;100745.75;;;10.25;67.44
64889;BME280;51386;53.082;8.816;2023-12-20T07:14:25;100736.06;;;10.26;67.20
64889;BME280;51386;53.082;8.816;2023-12-20T07:16:53;100721.56;;;10.30;67.12
64889;BME280;51386;53.082;8.816;2023-12-20T07:19:22;100741.13;;;10.27;67.08
64889;BME280;51386;53.082;8.816;2023-12-20T07:21:55;100736.88;;;10.26;66.93
64889;BME280;51386;53.082;8.816;2023-12-20T07:24:24;100727.00;;;10.28;67.09
64889;BME280;51386;53.082;8.816;2023-12-20T07:26:53;100730.28;;;10.30;67.15
64889;BME280;51386;53.082;8.816;2023-12-20T07:29:21;100733.91;;;10.29;66.94
64889;BME280;51386;53.082;8.816;2023-12-20T07:31:50;100734.56;;;10.31;66.83
64889;BME280;51386;53.082;8.816;2023-12-20T07:34:21;100724.88;;;10.32;66.87
64889;BME280;51386;53.082;8.816;2023-12-20T07:36:57;100729.94;;;10.33;67.19
64889;BME280;51386;53.082;8.816;2023-12-20T07:39:39;100755.25;;;10.34;66.93
64889;BME280;51386;53.082;8.816;2023-12-20T07:42:14;100732.56;;;10.33;67.29
64889;BME280;51386;53.082;8.816;2023-12-20T07:44:48;100736.81;;;10.34;66.98
64889;BME280;51386;53.082;8.816;2023-12-20T07:47:23;100734.03;;;10.36;66.79
64889;BME280;51386;53.082;8.816;2023-12-20T07:49:56;100734.88;;;10.36;66.85
64889;BME280;51386;53.082;8.816;2023-12-20T07:52:26;100718.06;;;10.37;67.14
64889;BME280;51386;53.082;8.816;2023-12-20T07:54:55;100717.09;;;10.38;66.72
64889;BME280;51386;53.082;8.816;2023-12-20T07:57:28;100719.34;;;10.41;66.91
64889;BME280;51386;53.082;8.816;2023-12-20T08:00:15;100704.56;;;10.40;67.04
64889;BME280;51386;53.082;8.816;2023-12-20T08:03:03;100711.47;;;10.41;67.28
64889;BME280;51386;53.082;8.816;2023-12-20T08:05:32;100702.59;;;10.42;67.22
64889;BME280;51386;53.082;8.816;2023-12-20T08:08:01;100709.66;;;10.42;67.14
64889;BME280;51386;53.082;8.816;2023-12-20T08:10:29;100697.13;;;10.44;67.19
64889;BME280;51386;53.082;8.816;2023-12-20T08:12:58;100695.97;;;10.46;67.19
64889;BME280;51386;53.082;8.816;2023-12-20T08:15:29;100694.00;;;10.48;67.29
64889;BME280;51386;53.082;8.816;2023-12-20T08:17:57;100701.72;;;10.50;67.14
64889;BME280;51386;53.082;8.816;2023-12-20T08:20:28;100704.16;;;10.51;66.97
64889;BME280;51386;53.082;8.816;2023-12-20T08:23:06;100690.84;;;10.53;66.73
64889;BME280;51386;53.082;8.816;2023-12-20T08:25:35;100688.03;;;10.54;66.81
64889;BME280;51386;53.082;8.816;2023-12-20T08:28:05;100681.59;;;10.57;67.02
64889;BME280;51386;53.082;8.816;2023-12-20T08:30:36;100682.88;;;10.61;66.80
64889;BME280;51386;53.082;8.816;2023-12-20T08:33:13;100679.72;;;10.65;66.59
64889;BME280;51386;53.082;8.816;2023-12-20T08:35:46;100681.03;;;10.69;66.84
64889;BME280;51386;53.082;8.816;2023-12-20T08:38:15;100674.06;;;10.76;66.63
64889;BME280;51386;53.082;8.816;2023-12-20T08:40:44;100686.03;;;10.79;66.39
64889;BME280;51386;53.082;8.816;2023-12-20T08:43:18;100666.44;;;10.81;66.59
64889;BME280;51386;53.082;8.816;2023-12-20T08:45:52;100667.44;;;10.80;66.21
64889;BME280;51386;53.082;8.816;2023-12-20T08:48:20;100658.72;;;10.80;66.58
64889;BME280;51386;53.082;8.816;2023-12-20T08:50:49;100654.91;;;10.82;66.45
64889;BME280;51386;53.082;8.816;2023-12-20T08:53:19;100646.66;;;10.85;66.42
64889;BME280;51386;53.082;8.816;2023-12-20T08:55:48;100642.66;;;10.89;66.46
64889;BME280;51386;53.082;8.816;2023-12-20T08:58:16;100636.03;;;10.94;66.04
64889;BME280;51386;53.082;8.816;2023-12-20T09:00:45;100648.22;;;10.95;66.20
64889;BME280;51386;53.082;8.816;2023-12-20T09:03:14;100655.47;;;10.93;66.26
64889;BME280;51386;53.082;8.816;2023-12-20T09:05:43;100642.31;;;10.93;66.15
64889;BME280;51386;53.082;8.816;2023-12-20T09:08:21;100651.56;;;10.88;66.18
64889;BME280;51386;53.082;8.816;2023-12-20T09:10:50;100639.59;;;10.86;66.51
64889;BME280;51386;53.082;8.816;2023-12-20T09:13:18;100630.22;;;10.83;66.89
64889;BME280;51386;53.082;8.816;2023-12-20T09:15:50;100641.44;;;10.77;67.26
64889;BME280;51386;53.082;8.816;2023-12-20T09:18:19;100636.28;;;10.69;67.20
64889;BME280;51386;53.082;8.816;2023-12-20T09:20:47;100639.59;;;10.63;67.66
64889;BME280;51386;53.082;8.816;2023-12-20T09:23:50;100647.41;;;10.57;68.07
64889;BME280;51386;53.082;8.816;2023-12-20T09:27:17;100653.81;;;10.54;68.16
64889;BME280;51386;53.082;8.816;2023-12-20T09:29:49;100643.84;;;10.50;68.38
64889;BME280;51386;53.082;8.816;2023-12-20T09:32:43;100635.31;;;10.48;68.37
64889;BME280;51386;53.082;8.816;2023-12-20T09:35:20;100643.34;;;10.46;68.61
64889;BME280;51386;53.082;8.816;2023-12-20T09:37:54;100648.28;;;10.49;68.67
64889;BME280;51386;53.082;8.816;2023-12-20T09:40:26;100643.84;;;10.50;68.84
64889;BME280;51386;53.082;8.816;2023-12-20T09:43:04;100642.03;;;10.50;68.76
64889;BME280;51386;53.082;8.816;2023-12-20T09:45:47;100660.06;;;10.53;68.67
64889;BME280;51386;53.082;8.816;2023-12-20T09:48:26;100704.66;;;10.55;69.01
64889;BME280;51386;53.082;8.816;2023-12-20T09:50:58;100703.09;;;10.60;68.98
64889;BME280;51386;53.082;8.816;2023-12-20T09:53:28;100712.03;;;10.59;68.84
64889;BME280;51386;53.082;8.816;2023-12-20T09:55:59;100720.06;;;10.58;68.58
64889;BME280;51386;53.082;8.816;2023-12-20T09:58:28;100712.69;;;10.53;68.40
64889;BME280;51386;53.082;8.816;2023-12-20T10:00:57;100714.25;;;10.48;68.21
64889;BME280;51386;53.082;8.816;2023-12-20T10:03:26;100722.66;;;10.43;68.00
64889;BME280;51386;53.082;8.816;2023-12-20T10:05:57;100711.19;;;10.36;68.01
64889;BME280;51386;53.082;8.816;2023-12-20T10:08:26;100703.97;;;10.30;67.75
64889;BME280;51386;53.082;8.816;2023-12-20T10:10:55;100703.03;;;10.23;67.74
64889;BME280;51386;53.082;8.816;2023-12-20T10:13:25;100705.34;;;10.18;67.71
64889;BME280;51386;53.082;8.816;2023-12-20T10:15:55;100717.22;;;10.14;67.57
64889;BME280;51386;53.082;8.816;2023-12-20T10:18:24;100702.59;;;10.11;67.63
64889;BME280;51386;53.082;8.816;2023-12-20T10:21:06;100681.03;;;10.08;67.32
64889;BME280;51386;53.082;8.816;2023-12-20T10:23:38;100694.19;;;10.08;67.38
64889;BME280;51386;53.082;8.816;2023-12-20T10:26:07;100706.53;;;10.07;67.09
64889;BME280;51386;53.082;8.816;2023-12-20T10:28:36;100714.25;;;10.09;67.34
64889;BME280;51386;53.082;8.816;2023-12-20T10:31:08;100713.94;;;10.12;67.08
64889;BME280;51386;53.082;8.816;2023-12-20T10:33:40;100717.22;;;10.14;67.06
64889;BME280;51386;53.082;8.816;2023-12-20T10:36:09;100717.22;;;10.14;66.75
64889;BME280;51386;53.082;8.816;2023-12-20T10:38:42;100713.75;;;10.13;66.67
64889;BME280;51386;53.082;8.816;2023-12-20T10:41:12;100701.44;;;10.14;66.51
64889;BME280;51386;53.082;8.816;2023-12-20T10:43:42;100703.38;;;10.20;66.72
64889;BME280;51386;53.082;8.816;2023-12-20T10:46:11;100712.69;;;10.31;66.59
64889;BME280;51386;53.082;8.816;2023-12-20T10:48:42;100719.72;;;10.38;66.40
64889;BME280;51386;53.082;8.816;2023-12-20T10:51:17;100718.03;;;10.45;66.00
64889;BME280;51386;53.082;8.816;2023-12-20T10:53:47;100714.06;;;10.49;65.90
64889;BME280;51386;53.082;8.816;2023-12-20T10:56:19;100700.72;;;10.51;65.67
64889;BME280;51386;53.082;8.816;2023-12-20T10:58:50;100692.38;;;10.47;65.48
64889;BME280;51386;53.082;8.816;2023-12-20T11:01:19;100678.09;;;10.42;65.34
64889;BME280;51386;53.082;8.816;2023-12-20T11:03:51;100688.50;;;10.35;65.35
64889;BME280;51386;53.082;8.816;2023-12-20T11:12:17;100693.84;;;10.19;65.45
64889;BME280;51386;53.082;8.816;2023-12-20T11:14:54;100691.22;;;10.19;65.51
64889;BME280;51386;53.082;8.816;2023-12-20T11:17:27;100698.28;;;10.18;65.50
64889;BME280;51386;53.082;8.816;2023-12-20T11:22:25;100696.78;;;10.24;65.70
64889;BME280;51386;53.082;8.816;2023-12-20T11:25:03;100677.03;;;10.28;65.42
64889;BME280;51386;53.082;8.816;2023-12-20T11:27:44;100679.63;;;10.36;65.59
64889;BME280;51386;53.082;8.816;2023-12-20T11:30:55;100673.66;;;10.42;65.71
64889;BME280;51386;53.082;8.816;2023-12-20T11:33:38;100677.03;;;10.51;65.38
64889;BME280;51386;53.082;8.816;2023-12-20T11:36:14;100681.72;;;10.63;65.30
64889;BME280;51386;53.082;8.816;2023-12-20T11:38:57;100677.41;;;11.22;66.04
64889;BME280;51386;53.082;8.816;2023-12-20T11:41:26;100674.78;;;11.95;65.33
64889;BME280;51386;53.082;8.816;2023-12-20T11:43:56;100670.09;;;12.48;64.05
64889;BME280;51386;53.082;8.816;2023-12-20T11:46:25;100680.41;;;12.91;63.55
64889;BME280;51386;53.082;8.816;2023-12-20T11:48:54;100666.53;;;13.38;62.81
64889;BME280;51386;53.082;8.816;2023-12-20T11:51:23;100669.25;;;13.86;60.93
64889;BME280;51386;53.082;8.816;2023-12-20T11:53:54;100679.81;;;14.33;59.35
64889;BME280;51386;53.082;8.816;2023-12-20T11:56:23;100677.81;;;14.61;58.21
64889;BME280;51386;53.082;8.816;2023-12-20T11:58:51;100686.38;;;14.63;56.91
64889;BME280;51386;53.082;8.816;2023-12-20T12:01:22;100686.59;;;14.81;56.40
64889;BME280;51386;53.082;8.816;2023-12-20T12:04:05;100690.06;;;15.08;54.80
64889;BME280;51386;53.082;8.816;2023-12-20T12:06:34;100683.31;;;15.06;53.79
64889;BME280;51386;53.082;8.816;2023-12-20T12:09:03;100687.63;;;14.87;53.47
64889;BME280;51386;53.082;8.816;2023-12-20T12:11:32;100688.63;;;14.86;53.90
64889;BME280;51386;53.082;8.816;2023-12-20T12:14:01;100688.25;;;15.02;53.36
64889;BME280;51386;53.082;8.816;2023-12-20T12:16:30;100686.81;;;15.00;52.04
64889;BME280;51386;53.082;8.816;2023-12-20T12:18:59;100691.69;;;14.76;52.74
64889;BME280;51386;53.082;8.816;2023-12-20T12:21:27;100686.78;;;14.47;52.95
64889;BME280;51386;53.082;8.816;2023-12-20T12:24:10;100676.47;;;14.18;53.00
64889;BME280;51386;53.082;8.816;2023-12-20T12:26:38;100678.03;;;13.99;53.51
64889;BME280;51386;53.082;8.816;2023-12-20T12:29:09;100662.06;;;13.80;53.60
64889;BME280;51386;53.082;8.816;2023-12-20T12:31:38;100666.47;;;13.60;53.93
64889;BME280;51386;53.082;8.816;2023-12-20T12:34:07;100670.63;;;13.41;53.87
64889;BME280;51386;53.082;8.816;2023-12-20T12:36:37;100673.56;;;13.25;54.43
64889;BME280;51386;53.082;8.816;2023-12-20T12:39:05;100677.34;;;13.09;54.90
64889;BME280;51386;53.082;8.816;2023-12-20T12:41:34;100696.09;;;12.93;54.94
64889;BME280;51386;53.082;8.816;2023-12-20T12:44:02;100691.13;;;12.83;55.69
64889;BME280;51386;53.082;8.816;2023-12-20T12:46:46;100697.97;;;12.78;55.77
64889;BME280;51386;53.082;8.816;2023-12-20T12:49:15;100685.72;;;12.70;55.72
64889;BME280;51386;53.082;8.816;2023-12-20T12:51:44;100688.31;;;12.64;55.66
64889;BME280;51386;53.082;8.816;2023-12-20T12:54:13;100693.31;;;12.59;56.16
64889;BME280;51386;53.082;8.816;2023-12-20T12:56:44;100688.78;;;12.53;56.16
64889;BME280;51386;53.082;8.816;2023-12-20T12:59:13;100686.28;;;12.45;56.45
64889;BME280;51386;53.082;8.816;2023-12-20T13:01:41;100684.16;;;12.34;56.49
64889;BME280;51386;53.082;8.816;2023-12-20T13:04:09;100689.53;;;12.26;57.03
64889;BME280;51386;53.082;8.816;2023-12-20T13:06:39;100698.19;;;12.19;57.09
64889;BME280;51386;53.082;8.816;2023-12-20T13:09:19;100705.41;;;12.11;57.31
64889;BME280;51386;53.082;8.816;2023-12-20T13:12:13;100695.13;;;12.01;57.43
64889;BME280;51386;53.082;8.816;2023-12-20T13:14:42;100690.59;;;11.95;57.52
64889;BME280;51386;53.082;8.816;2023-12-20T13:17:10;100684.03;;;11.91;57.52
64889;BME280;51386;53.082;8.816;2023-12-20T13:19:39;100683.41;;;11.89;57.68